Time;durP1;ratioP1;P1;durP2;ratioP2;P2;SDS_P1;SDS_P2;PMS_P1;PMS_P2;Temp;Humidity;BMP_temperature;BMP_pressure;BME280_temperature;BME280_humidity;BME280_pressure;Samples;Min_cycle;Max_cycle;Signal;HPM_P1;HPM_P2
2023/03/10 00:04:16;;;;;;;;;;;;;;;2.94;100.00;98726.59;10455866;28;20397;-64
2023/03/10 00:09:18;;;;;;;;;;;;;;;2.93;100.00;98726.69;10457337;28;19934;-64
2023/03/10 00:14:21;;;;;;;;;;;;;;;3.02;100.00;98726.13;10455940;28;19979;-64
2023/03/10 00:19:23;;;;;;;;;;;;;;;3.10;100.00;98734.25;10456660;28;19928;-64
2023/03/10 00:24:25;;;;;;;;;;;;;;;3.04;100.00;98742.38;10456941;28;19937;-64
2023/03/10 00:29:28;;;;;;;;;;;;;;;2.82;100.00;98729.88;10455542;28;19925;-64
2023/03/10 00:34:30;;;;;;;;;;;;;;;2.58;100.00;98738.13;10456221;28;19925;-64
2023/03/10 00:39:32;;;;;;;;;;;;;;;3.14;100.00;98732.31;10454996;28;19970;-64
2023/03/10 00:44:34;;;;;;;;;;;;;;;3.26;100.00;98710.91;10455876;28;19979;-64
2023/03/10 00:49:36;;;;;;;;;;;;;;;3.29;100.00;98697.78;10458537;28;19951;-64
2023/03/10 00:54:39;;;;;;;;;;;;;;;3.17;100.00;98698.53;10463410;28;19928;-64
2023/03/10 00:59:42;;;;;;;;;;;;;;;3.23;100.00;98705.94;10464086;28;20091;-64
2023/03/10 01:04:51;;;;;;;;;;;;;;;3.50;100.00;98697.41;10463221;28;20395;-65
2023/03/10 01:09:53;;;;;;;;;;;;;;;3.27;100.00;98689.28;10462888;28;19924;-64
2023/03/10 01:14:56;;;;;;;;;;;;;;;3.30;100.00;98683.94;10462736;28;20007;-64
2023/03/10 01:19:58;;;;;;;;;;;;;;;3.44;100.00;98690.84;10463304;28;19925;-64
2023/03/10 01:25:00;;;;;;;;;;;;;;;3.39;100.00;98687.69;10462137;28;19979;-64
2023/03/10 01:30:03;;;;;;;;;;;;;;;3.28;100.00;98695.31;10462489;28;19948;-64
2023/03/10 01:35:05;;;;;;;;;;;;;;;3.35;100.00;98699.19;10462693;28;19924;-64
2023/03/10 01:40:08;;;;;;;;;;;;;;;3.37;100.00;98694.72;10461701;28;19925;-64
2023/03/10 01:45:13;;;;;;;;;;;;;;;3.41;100.00;98682.44;10462239;28;19951;-64
2023/03/10 01:50:16;;;;;;;;;;;;;;;3.43;100.00;98678.00;10460947;28;20349;-64
2023/03/10 01:55:19;;;;;;;;;;;;;;;3.46;100.00;98668.31;10461366;28;19947;-64
2023/03/10 02:00:21;;;;;;;;;;;;;;;3.45;100.00;98673.56;10441342;28;19924;-64
2023/03/10 02:05:24;;;;;;;;;;;;;;;3.46;100.00;98665.72;10443930;28;19970;-64
2023/03/10 02:10:26;;;;;;;;;;;;;;;3.39;100.00;98661.00;10460600;28;19936;-64
2023/03/10 02:15:28;;;;;;;;;;;;;;;3.31;100.00;98664.91;10442991;28;19928;-64
2023/03/10 02:20:33;;;;;;;;;;;;;;;3.41;100.00;98662.56;10460154;28;19979;-64
2023/03/10 02:25:39;;;;;;;;;;;;;;;3.32;100.00;98660.56;10460756;28;19935;-64
2023/03/10 02:30:45;;;;;;;;;;;;;;;3.64;100.00;98670.66;10459114;28;19924;-64
2023/03/10 02:35:48;;;;;;;;;;;;;;;3.40;100.00;98665.28;10441851;28;19929;-64
2023/03/10 02:40:50;;;;;;;;;;;;;;;3.39;100.00;98656.66;10459506;28;20289;-64
2023/03/10 02:45:54;;;;;;;;;;;;;;;3.30;100.00;98652.06;10459016;28;19924;-64
2023/03/10 02:50:57;;;;;;;;;;;;;;;3.58;100.00;98655.50;10459051;28;20299;-64
2023/03/10 02:55:59;;;;;;;;;;;;;;;3.64;100.00;98649.97;10458695;28;19928;-64
2023/03/10 03:01:03;;;;;;;;;;;;;;;3.53;100.00;98638.53;10458777;28;19929;-64
2023/03/10 03:06:06;;;;;;;;;;;;;;;3.56;100.00;98645.25;10456655;28;20339;-64
2023/03/10 03:11:08;;;;;;;;;;;;;;;3.61;100.00;98642.38;10457972;28;19928;-64
2023/03/10 03:16:10;;;;;;;;;;;;;;;3.55;100.00;98638.44;10456562;28;19931;-64
2023/03/10 03:21:14;;;;;;;;;;;;;;;3.46;100.00;98633.81;10457925;28;20295;-64
2023/03/10 03:26:18;;;;;;;;;;;;;;;3.57;100.00;98628.00;10458395;28;19929;-64
2023/03/10 03:31:21;;;;;;;;;;;;;;;3.63;100.00;98612.91;10439597;28;19925;-64
2023/03/10 03:36:23;;;;;;;;;;;;;;;3.57;100.00;98620.22;10457574;28;20367;-64
2023/03/10 03:41:26;;;;;;;;;;;;;;;3.71;100.00;98620.16;10457090;28;19925;-64
2023/03/10 03:46:28;;;;;;;;;;;;;;;3.51;100.00;98619.69;10457129;28;19924;-64
2023/03/10 03:51:30;;;;;;;;;;;;;;;3.41;100.00;98621.16;10457270;28;19925;-64
2023/03/10 03:56:32;;;;;;;;;;;;;;;3.42;100.00;98615.09;10456129;28;19929;-64
2023/03/10 04:01:34;;;;;;;;;;;;;;;3.53;100.00;98622.16;10456866;28;19924;-64
2023/03/10 04:06:37;;;;;;;;;;;;;;;3.34;100.00;98620.72;10456617;28;19932;-64
2023/03/10 04:11:39;;;;;;;;;;;;;;;3.52;100.00;98621.34;10455768;28;20421;-64
2023/03/10 04:16:41;;;;;;;;;;;;;;;3.44;100.00;98626.16;10455401;28;19925;-64
2023/03/10 04:21:43;;;;;;;;;;;;;;;3.32;100.00;98626.94;10456975;28;19961;-64
2023/03/10 04:26:45;;;;;;;;;;;;;;;3.41;100.00;98616.00;10463386;28;19925;-64
2023/03/10 04:31:48;;;;;;;;;;;;;;;3.32;100.00;98611.41;10464906;23;19935;-62
2023/03/10 04:37:05;;;;;;;;;;;;;;;3.42;100.00;98616.84;10448753;28;19929;-63
2023/03/10 04:42:07;;;;;;;;;;;;;;;3.33;100.00;98611.31;10464208;28;20395;-63
2023/03/10 04:47:10;;;;;;;;;;;;;;;3.43;100.00;98614.16;10446350;28;20398;-63
2023/03/10 04:52:13;;;;;;;;;;;;;;;3.34;100.00;98600.03;10462887;28;19932;-63
2023/03/10 04:57:15;;;;;;;;;;;;;;;3.12;100.00;98610.06;10464261;28;19938;-62
2023/03/10 05:02:17;;;;;;;;;;;;;;;3.08;100.00;98603.44;10463375;28;19928;-63
2023/03/10 05:07:20;;;;;;;;;;;;;;;3.44;100.00;98597.69;10463041;28;19925;-63
2023/03/10 05:12:22;;;;;;;;;;;;;;;3.38;100.00;98605.03;10462976;28;19932;-63
2023/03/10 05:17:26;;;;;;;;;;;;;;;2.97;100.00;98581.63;10462491;28;19924;-63
2023/03/10 05:22:28;;;;;;;;;;;;;;;2.84;100.00;98603.16;10463298;28;19979;-63
2023/03/10 05:27:31;;;;;;;;;;;;;;;3.07;100.00;98601.75;10463075;28;19925;-63
2023/03/10 05:32:33;;;;;;;;;;;;;;;3.40;100.00;98598.84;10461094;28;19979;-63
2023/03/10 05:37:39;;;;;;;;;;;;;;;3.20;100.00;98597.50;10462409;28;19925;-63
2023/03/10 05:42:42;;;;;;;;;;;;;;;3.28;100.00;98603.03;10462977;28;19924;-63
2023/03/10 05:47:47;;;;;;;;;;;;;;;3.26;100.00;98594.53;10458807;28;20442;-63
2023/03/10 05:52:49;;;;;;;;;;;;;;;3.35;100.00;98593.13;10452381;28;19925;-62
2023/03/10 05:57:51;;;;;;;;;;;;;;;3.35;100.00;98595.72;10461060;28;19975;-63
2023/03/10 06:02:53;;;;;;;;;;;;;;;3.19;100.00;98610.50;10460928;28;20391;-63
2023/03/10 06:07:56;;;;;;;;;;;;;;;3.23;100.00;98610.25;10459975;28;19925;-63
2023/03/10 06:12:58;;;;;;;;;;;;;;;3.36;100.00;98612.88;10460665;28;19933;-63
2023/03/10 06:18:00;;;;;;;;;;;;;;;3.50;100.00;98633.53;10459735;28;19925;-62
2023/03/10 06:23:02;;;;;;;;;;;;;;;3.22;100.00;98628.44;10460136;28;20424;-62
2023/03/10 06:28:04;;;;;;;;;;;;;;;3.20;100.00;98633.69;10460067;28;19932;-62
2023/03/10 06:33:10;;;;;;;;;;;;;;;3.23;100.00;98624.91;10459900;28;19924;-63
2023/03/10 06:38:13;;;;;;;;;;;;;;;3.13;100.00;98619.50;10459647;28;19932;-62
2023/03/10 06:43:15;;;;;;;;;;;;;;;3.41;100.00;98620.34;10459997;28;19971;-62
2023/03/10 06:48:17;;;;;;;;;;;;;;;3.25;100.00;98618.72;10459260;28;19932;-63
2023/03/10 06:53:20;;;;;;;;;;;;;;;3.31;100.00;98625.25;10459637;28;19925;-63
2023/03/10 06:58:22;;;;;;;;;;;;;;;3.25;100.00;98626.47;10441855;28;19928;-63
2023/03/10 07:03:25;;;;;;;;;;;;;;;3.22;100.00;98628.44;10459263;28;19928;-63
2023/03/10 07:08:27;;;;;;;;;;;;;;;3.29;100.00;98629.72;10458554;28;20308;-62
2023/03/10 07:13:29;;;;;;;;;;;;;;;3.08;100.00;98639.63;10441036;28;19924;-62
2023/03/10 07:18:32;;;;;;;;;;;;;;;2.91;100.00;98633.72;10458786;28;19975;-62
2023/03/10 07:23:34;;;;;;;;;;;;;;;3.14;100.00;98634.91;10440949;28;19975;-62
2023/03/10 07:28:36;;;;;;;;;;;;;;;3.58;100.00;98651.19;10458062;28;19925;-62
2023/03/10 07:33:38;;;;;;;;;;;;;;;3.34;100.00;98644.00;10458202;28;19929;-62
2023/03/10 07:38:41;;;;;;;;;;;;;;;3.44;100.00;98652.03;10458083;28;19925;-62
2023/03/10 07:43:43;;;;;;;;;;;;;;;3.44;100.00;98649.44;10457147;28;19994;-63
2023/03/10 07:48:45;;;;;;;;;;;;;;;3.63;100.00;98661.22;10457774;28;19971;-62
2023/03/10 07:53:48;;;;;;;;;;;;;;;3.73;100.00;98664.91;10457639;28;19929;-63
2023/03/10 07:58:50;;;;;;;;;;;;;;;3.73;100.00;98662.31;10457527;28;19925;-62
2023/03/10 08:03:52;;;;;;;;;;;;;;;3.69;100.00;98674.63;10456698;28;19924;-63
2023/03/10 08:08:57;;;;;;;;;;;;;;;3.79;100.00;98671.47;10456691;28;20043;-62
2023/03/10 08:14:00;;;;;;;;;;;;;;;4.02;100.00;98670.81;10457190;28;19925;-62
2023/03/10 08:19:02;;;;;;;;;;;;;;;4.04;100.00;98671.53;10457171;28;19960;-62
2023/03/10 08:24:04;;;;;;;;;;;;;;;4.13;100.00;98666.72;10456293;28;20295;-62
2023/03/10 08:29:07;;;;;;;;;;;;;;;4.21;100.00;98669.63;10456639;28;20360;-62
2023/03/10 08:34:09;;;;;;;;;;;;;;;4.18;100.00;98678.41;10438598;28;19936;-62
2023/03/10 08:39:11;;;;;;;;;;;;;;;4.17;100.00;98678.50;10456740;28;19931;-62
2023/03/10 08:44:16;;;;;;;;;;;;;;;4.35;100.00;98679.91;10456528;28;19975;-63
2023/03/10 08:49:19;;;;;;;;;;;;;;;4.54;100.00;98671.78;10438924;28;19925;-62
2023/03/10 08:54:22;;;;;;;;;;;;;;;4.57;100.00;98665.53;10456420;28;19925;-62
2023/03/10 08:59:24;;;;;;;;;;;;;;;4.37;100.00;98670.28;10438659;28;19925;-63
2023/03/10 09:04:26;;;;;;;;;;;;;;;4.49;100.00;98668.66;10455526;28;20334;-62
2023/03/10 09:09:28;;;;;;;;;;;;;;;4.43;100.00;98675.06;10457013;28;19932;-61
2023/03/10 09:14:30;;;;;;;;;;;;;;;4.26;100.00;98677.94;10463002;28;19948;-62
2023/03/10 09:19:32;;;;;;;;;;;;;;;4.48;100.00;98677.34;10462816;28;20284;-62
2023/03/10 09:24:35;;;;;;;;;;;;;;;4.57;100.00;98681.94;10463120;28;19975;-62
2023/03/10 09:29:37;;;;;;;;;;;;;;;4.60;100.00;98673.94;10462222;28;20444;-62
2023/03/10 09:34:44;;;;;;;;;;;;;;;4.52;100.00;98677.97;10462951;28;19960;-64
2023/03/10 09:39:46;;;;;;;;;;;;;;;4.64;100.00;98674.59;10462717;28;19925;-64
2023/03/10 09:45:09;;;;;;;;;;;;;;;4.70;100.00;98666.38;10461843;28;19936;-64
2023/03/10 09:50:15;;;;;;;;;;;;;;;4.96;100.00;98669.81;10460715;28;19925;-64
2023/03/10 09:55:21;;;;;;;;;;;;;;;4.89;100.00;98671.13;10443935;28;19980;-64
2023/03/10 10:00:26;;;;;;;;;;;;;;;4.76;100.00;98678.94;10461303;28;20364;-64
2023/03/10 10:05:31;;;;;;;;;;;;;;;4.95;100.00;98688.06;10444027;28;19925;-64
2023/03/10 10:10:37;;;;;;;;;;;;;;;5.24;100.00;98677.47;10443644;28;19932;-64
2023/03/10 10:15:40;;;;;;;;;;;;;;;5.34;100.00;98681.06;10443671;28;19936;-64
2023/03/10 10:20:47;;;;;;;;;;;;;;;5.22;100.00;98687.94;10442710;28;19932;-64
2023/03/10 10:25:49;;;;;;;;;;;;;;;5.09;100.00;98690.53;10442940;28;19983;-64
2023/03/10 10:30:52;;;;;;;;;;;;;;;5.38;100.00;98688.53;10460178;28;19925;-64
2023/03/10 10:36:01;;;;;;;;;;;;;;;5.63;100.00;98694.63;10442873;28;19925;-64
2023/03/10 10:41:05;;;;;;;;;;;;;;;5.42;100.00;98691.75;10460388;28;19977;-64
2023/03/10 10:46:09;;;;;;;;;;;;;;;5.90;100.00;98701.38;10442679;28;19950;-64
2023/03/10 10:51:23;;;;;;;;;;;;;;;6.10;100.00;98690.41;10441669;28;20291;-64
2023/03/10 10:56:27;;;;;;;;;;;;;;;6.25;100.00;98687.63;10459716;28;19925;-64
2023/03/10 11:01:48;;;;;;;;;;;;;;;5.92;100.00;98686.53;10441458;28;20418;-64
2023/03/10 11:06:50;;;;;;;;;;;;;;;5.92;100.00;98683.94;10459224;28;19928;-64
2023/03/10 11:11:55;;;;;;;;;;;;;;;5.71;100.00;98697.47;10440843;28;19951;-64
2023/03/10 11:17:01;;;;;;;;;;;;;;;5.63;100.00;98696.38;10441258;28;19925;-64
2023/03/10 11:22:06;;;;;;;;;;;;;;;5.76;100.00;98692.78;10458726;28;19931;-64
2023/03/10 11:27:41;;;;;;;;;;;;;;;5.77;100.00;98686.66;10457950;28;19931;-64
2023/03/10 11:32:50;;;;;;;;;;;;;;;5.85;100.00;98688.72;10413449;28;19925;-64
2023/03/10 11:37:55;;;;;;;;;;;;;;;5.98;100.00;98688.69;10458320;28;19931;-64
2023/03/10 11:43:20;;;;;;;;;;;;;;;5.69;100.00;98688.97;10458109;28;19974;-64
2023/03/10 11:48:22;;;;;;;;;;;;;;;5.79;100.00;98681.38;10440309;28;19976;-64
2023/03/10 11:53:27;;;;;;;;;;;;;;;5.89;100.00;98677.16;10457133;28;19924;-64
2023/03/10 11:58:39;;;;;;;;;;;;;;;5.97;100.00;98668.88;10457023;28;20391;-64
2023/03/10 12:03:47;;;;;;;;;;;;;;;6.01;100.00;98652.09;10457463;28;19925;-64
2023/03/10 12:08:50;;;;;;;;;;;;;;;5.56;100.00;98646.66;10439927;28;20035;-64
2023/03/10 12:13:55;;;;;;;;;;;;;;;5.73;100.00;98655.81;10439680;28;19931;-64
2023/03/10 12:18:58;;;;;;;;;;;;;;;5.80;100.00;98651.88;10456636;28;19925;-64
2023/03/10 12:24:01;;;;;;;;;;;;;;;5.69;100.00;98646.63;10456398;28;20380;-64
2023/03/10 12:29:18;;;;;;;;;;;;;;;5.83;100.00;98648.22;10456752;28;19925;-64
2023/03/10 12:34:21;;;;;;;;;;;;;;;5.48;100.00;98649.81;10456933;28;19928;-64
2023/03/10 12:39:26;;;;;;;;;;;;;;;5.40;100.00;98649.50;10439193;28;19931;-64
2023/03/10 12:44:29;;;;;;;;;;;;;;;5.28;100.00;98642.56;10457488;28;19975;-64
2023/03/10 12:49:44;;;;;;;;;;;;;;;5.03;100.00;98642.50;10446438;28;19924;-64
2023/03/10 12:54:54;;;;;;;;;;;;;;;5.43;100.00;98636.31;10464456;28;19951;-64
2023/03/10 12:59:58;;;;;;;;;;;;;;;5.42;100.00;98628.66;10463766;28;20384;-64
2023/03/10 13:05:05;;;;;;;;;;;;;;;5.14;100.00;98625.38;10463450;28;20298;-64
2023/03/10 13:10:11;;;;;;;;;;;;;;;5.01;100.00;98622.81;10463958;28;19924;-64
2023/03/10 13:15:24;;;;;;;;;;;;;;;4.82;100.00;98616.31;10446099;28;20007;-64
2023/03/10 13:20:26;;;;;;;;;;;;;;;4.66;100.00;98623.47;10463594;28;19932;-64
2023/03/10 13:25:31;;;;;;;;;;;;;;;4.86;100.00;98629.03;10463282;28;19952;-64
2023/03/10 13:30:33;;;;;;;;;;;;;;;4.81;100.00;98637.16;10462583;28;19934;-64
2023/03/10 13:35:36;;;;;;;;;;;;;;;4.75;100.00;98640.97;10462943;28;19925;-64
2023/03/10 13:40:40;;;;;;;;;;;;;;;4.94;100.00;98665.66;10462791;28;20019;-63
2023/03/10 13:45:42;;;;;;;;;;;;;;;4.41;100.00;98655.38;10444194;28;20288;-64
2023/03/10 13:50:45;;;;;;;;;;;;;;;4.56;100.00;98676.84;10461743;28;19931;-64
2023/03/10 13:55:47;;;;;;;;;;;;;;;4.55;100.00;98673.41;10444365;28;19928;-64
2023/03/10 14:00:49;;;;;;;;;;;;;;;4.06;100.00;98687.81;10461352;28;19925;-64
2023/03/10 14:05:52;;;;;;;;;;;;;;;4.12;100.00;98698.69;10461092;28;19924;-64
2023/03/10 14:11:13;;;;;;;;;;;;;;;4.20;100.00;98727.53;10460966;28;20372;-64
2023/03/10 14:16:16;;;;;;;;;;;;;;;3.95;100.00;98738.63;10461335;28;19970;-64
2023/03/10 14:21:31;;;;;;;;;;;;;;;3.94;100.00;98753.34;10443574;28;19925;-64
2023/03/10 14:26:33;;;;;;;;;;;;;;;4.03;100.00;98770.03;10460865;28;19928;-64
2023/03/10 14:31:35;;;;;;;;;;;;;;;3.85;100.00;98785.81;10460183;28;20227;-64
2023/03/10 14:36:38;;;;;;;;;;;;;;;3.86;100.00;98797.81;10460031;28;19970;-64
2023/03/10 14:41:41;;;;;;;;;;;;;;;3.28;100.00;98832.38;10442894;28;19928;-64
2023/03/10 14:46:46;;;;;;;;;;;;;;;3.21;100.00;98860.38;10459459;28;19987;-64
2023/03/10 14:51:48;;;;;;;;;;;;;;;3.17;100.00;98902.81;10442060;28;20287;-63
2023/03/10 14:56:57;;;;;;;;;;;;;;;3.00;100.00;98932.22;10459826;28;19928;-64
2023/03/10 15:02:02;;;;;;;;;;;;;;;2.68;100.00;98954.69;10442868;28;20016;-64
2023/03/10 15:07:04;;;;;;;;;;;;;;;2.47;100.00;98974.75;10441106;28;19960;-64
2023/03/10 15:12:06;;;;;;;;;;;;;;;2.23;100.00;98983.69;10458563;28;19932;-64
2023/03/10 15:17:09;;;;;;;;;;;;;;;1.83;100.00;99015.88;10459031;28;19975;-64
2023/03/10 15:22:11;;;;;;;;;;;;;;;1.96;100.00;99026.44;10441121;28;19933;-63
2023/03/10 15:27:13;;;;;;;;;;;;;;;1.47;100.00;99069.19;10458530;28;19924;-64
2023/03/10 15:32:16;;;;;;;;;;;;;;;1.41;100.00;99077.22;10457740;28;19925;-64
2023/03/10 15:37:18;;;;;;;;;;;;;;;1.00;100.00;99090.28;10457681;28;20019;-63
2023/03/10 15:42:20;;;;;;;;;;;;;;;0.95;100.00;99140.38;10457474;28;20313;-64
2023/03/10 15:47:22;;;;;;;;;;;;;;;1.16;100.00;99180.66;10457287;28;19970;-63
2023/03/10 15:52:24;;;;;;;;;;;;;;;0.85;100.00;99188.88;10457788;28;19979;-64
2023/03/10 15:57:26;;;;;;;;;;;;;;;0.93;100.00;99235.78;10457677;28;19951;-64
2023/03/10 16:02:29;;;;;;;;;;;;;;;0.61;100.00;99266.31;10457620;28;19971;-63
2023/03/10 16:07:32;;;;;;;;;;;;;;;0.73;100.00;99312.16;10457388;28;19929;-63
2023/03/10 16:12:34;;;;;;;;;;;;;;;0.67;100.00;99332.19;10456775;28;20372;-63
2023/03/10 16:17:36;;;;;;;;;;;;;;;0.64;100.00;99382.09;10457272;28;19975;-64
2023/03/10 16:22:39;;;;;;;;;;;;;;;0.40;100.00;99412.19;10463609;28;19925;-64
2023/03/10 16:27:42;;;;;;;;;;;;;;;0.34;100.00;99463.94;10465698;28;19935;-63
2023/03/10 16:32:47;;;;;;;;;;;;;;;0.40;100.00;99502.31;10464745;28;19925;-64
2023/03/10 16:37:50;;;;;;;;;;;;;;;0.23;100.00;99517.53;10465238;28;19925;-63
2023/03/10 16:42:52;;;;;;;;;;;;;;;0.32;100.00;99542.94;10452564;23;20433;-63
2023/03/10 16:47:54;;;;;;;;;;;;;;;0.29;100.00;99558.53;10422757;28;19925;-64
2023/03/10 16:52:57;;;;;;;;;;;;;;;0.35;100.00;99596.91;10423278;28;19925;-64
2023/03/10 16:57:59;;;;;;;;;;;;;;;0.24;100.00;99610.16;10437929;28;19953;-64
2023/03/10 17:03:01;;;;;;;;;;;;;;;0.10;100.00;99625.22;10463689;28;19978;-64
2023/03/10 17:08:04;;;;;;;;;;;;;;;0.30;100.00;99630.56;10463933;28;19932;-64
2023/03/10 17:13:07;;;;;;;;;;;;;;;0.41;100.00;99652.53;10463932;28;19929;-64
2023/03/10 17:18:09;;;;;;;;;;;;;;;0.40;100.00;99684.31;10463232;28;20299;-64
2023/03/10 17:23:11;;;;;;;;;;;;;;;0.26;100.00;99706.19;10463533;28;19932;-64
2023/03/10 17:28:13;;;;;;;;;;;;;;;0.41;100.00;99712.59;10463301;28;19931;-64
2023/03/10 17:33:15;;;;;;;;;;;;;;;0.45;100.00;99751.94;10461900;28;20364;-64
2023/03/10 17:38:19;;;;;;;;;;;;;;;0.52;100.00;99768.88;10462168;28;20157;-64
2023/03/10 17:43:22;;;;;;;;;;;;;;;0.68;100.00;99782.13;10462454;28;19925;-64
2023/03/10 17:48:34;;;;;;;;;;;;;;;0.46;100.00;99808.56;10462579;28;20015;-64
2023/03/10 17:53:37;;;;;;;;;;;;;;;0.40;100.00;99831.09;10460042;28;19971;-64
2023/03/10 17:58:39;;;;;;;;;;;;;;;0.55;100.00;99848.63;10458731;28;20311;-64
2023/03/10 18:03:41;;;;;;;;;;;;;;;0.49;100.00;99872.03;10444286;28;19925;-64
2023/03/10 18:08:44;;;;;;;;;;;;;;;0.62;100.00;99895.66;10461188;28;20011;-64
2023/03/10 18:13:46;;;;;;;;;;;;;;;0.60;100.00;99913.75;10458843;28;19925;-64
2023/03/10 18:18:49;;;;;;;;;;;;;;;0.60;100.00;99930.94;10443918;28;19988;-64
2023/03/10 18:23:52;;;;;;;;;;;;;;;0.47;100.00;99949.34;10460543;28;19931;-64
2023/03/10 18:28:54;;;;;;;;;;;;;;;0.46;100.00;99965.66;10456548;28;19925;-64
2023/03/10 18:33:56;;;;;;;;;;;;;;;0.62;100.00;99976.34;10455341;28;19928;-64
2023/03/10 18:39:01;;;;;;;;;;;;;;;0.50;100.00;99982.72;10460435;28;19932;-64
2023/03/10 18:44:03;;;;;;;;;;;;;;;0.51;100.00;100006.75;10458689;28;20368;-64
2023/03/10 18:49:06;;;;;;;;;;;;;;;0.53;100.00;100015.28;10439957;28;19925;-64
2023/03/10 18:54:08;;;;;;;;;;;;;;;0.28;100.00;100025.41;10456840;28;19931;-64
2023/03/10 18:59:10;;;;;;;;;;;;;;;0.53;100.00;100036.72;10459079;28;20425;-64
2023/03/10 19:04:12;;;;;;;;;;;;;;;0.47;100.00;100054.06;10459477;28;19929;-64
2023/03/10 19:09:17;;;;;;;;;;;;;;;0.48;100.00;100068.66;10452482;28;19924;-64
2023/03/10 19:14:20;;;;;;;;;;;;;;;0.38;100.00;100072.38;10456922;28;19924;-64
2023/03/10 19:19:22;;;;;;;;;;;;;;;0.40;100.00;100094.59;10459096;28;19933;-64
2023/03/10 19:24:24;;;;;;;;;;;;;;;0.51;100.00;100100.31;10458022;28;19931;-64
2023/03/10 19:29:26;;;;;;;;;;;;;;;0.46;100.00;100121.94;10456362;28;19932;-64
2023/03/10 19:34:28;;;;;;;;;;;;;;;0.52;100.00;100127.78;10457474;28;19928;-64
2023/03/10 19:39:31;;;;;;;;;;;;;;;0.69;100.00;100154.81;10455875;28;20396;-64
2023/03/10 19:44:33;;;;;;;;;;;;;;;0.54;100.00;100163.81;10455960;28;19929;-64
2023/03/10 19:49:37;;;;;;;;;;;;;;;0.72;100.00;100180.50;10439827;28;19925;-64
2023/03/10 19:54:40;;;;;;;;;;;;;;;0.57;100.00;100188.63;10455927;28;19928;-64
2023/03/10 19:59:42;;;;;;;;;;;;;;;0.41;100.00;100196.75;10457719;28;19925;-64
2023/03/10 20:04:44;;;;;;;;;;;;;;;0.32;100.00;100205.56;10457356;28;19931;-64
2023/03/10 20:09:48;;;;;;;;;;;;;;;0.37;100.00;100215.75;10454690;28;20330;-65
2023/03/10 20:14:53;;;;;;;;;;;;;;;0.60;100.00;100227.19;10437677;28;19925;-64
2023/03/10 20:19:55;;;;;;;;;;;;;;;0.38;100.00;100220.00;10415373;28;20365;-64
2023/03/10 20:24:59;;;;;;;;;;;;;;;0.51;100.00;100236.84;10415851;28;19929;-64
2023/03/10 20:30:06;;;;;;;;;;;;;;;0.42;100.00;100249.09;10435868;28;19929;-64
2023/03/10 20:35:08;;;;;;;;;;;;;;;0.33;100.00;100260.47;10435511;28;19925;-64
2023/03/10 20:40:11;;;;;;;;;;;;;;;0.41;100.00;100268.03;10456971;28;19932;-64
2023/03/10 20:45:14;;;;;;;;;;;;;;;0.47;100.00;100280.75;10438256;28;20015;-64
2023/03/10 20:50:16;;;;;;;;;;;;;;;0.41;100.00;100273.19;10454288;28;20383;-64
2023/03/10 20:55:20;;;;;;;;;;;;;;;0.52;100.00;100291.78;10454963;28;19940;-64
2023/03/10 21:00:26;;;;;;;;;;;;;;;0.51;100.00;100298.66;10454685;28;20327;-64
2023/03/10 21:05:28;;;;;;;;;;;;;;;0.45;100.00;100306.53;10439839;28;19932;-64
2023/03/10 21:10:30;;;;;;;;;;;;;;;0.59;100.00;100321.69;10462327;28;20430;-64
2023/03/10 21:15:33;;;;;;;;;;;;;;;0.59;100.00;100323.41;10462221;28;19996;-64
2023/03/10 21:20:35;;;;;;;;;;;;;;;0.73;100.00;100331.66;10462099;28;19924;-65
2023/03/10 21:25:37;;;;;;;;;;;;;;;0.67;100.00;100344.66;10463139;28;19925;-64
2023/03/10 21:30:40;;;;;;;;;;;;;;;0.57;100.00;100362.06;10444241;28;20433;-64
2023/03/10 21:35:42;;;;;;;;;;;;;;;0.62;100.00;100380.84;10460697;28;19924;-64
2023/03/10 21:40:45;;;;;;;;;;;;;;;0.76;100.00;100369.38;10462859;28;19925;-64
2023/03/10 21:45:47;;;;;;;;;;;;;;;0.79;100.00;100379.59;10444377;28;20010;-64
2023/03/10 21:50:49;;;;;;;;;;;;;;;0.57;100.00;100400.72;10460970;28;20265;-64
2023/03/10 21:55:53;;;;;;;;;;;;;;;0.70;100.00;100417.59;10458095;28;19932;-65
2023/03/10 22:00:55;;;;;;;;;;;;;;;0.57;100.00;100428.22;10462075;28;19975;-65
2023/03/10 22:05:58;;;;;;;;;;;;;;;0.74;100.00;100444.16;10460609;28;19979;-65
2023/03/10 22:11:00;;;;;;;;;;;;;;;0.67;100.00;100447.75;10459239;28;19925;-65
2023/03/10 22:16:03;;;;;;;;;;;;;;;0.79;100.00;100464.66;10459825;28;19952;-65
2023/03/10 22:21:06;;;;;;;;;;;;;;;0.69;100.00;100467.44;10443114;28;19978;-65
2023/03/10 22:26:09;;;;;;;;;;;;;;;0.58;100.00;100490.03;10460448;28;19928;-65
2023/03/10 22:31:11;;;;;;;;;;;;;;;0.61;100.00;100492.53;10460792;28;19973;-65
2023/03/10 22:36:14;;;;;;;;;;;;;;;0.40;100.00;100519.56;10459256;28;19924;-64
2023/03/10 22:41:16;;;;;;;;;;;;;;;0.45;100.00;100519.47;10460494;28;19928;-65
2023/03/10 22:46:19;;;;;;;;;;;;;;;0.49;100.00;100513.41;10459219;28;19925;-64
2023/03/10 22:51:21;;;;;;;;;;;;;;;0.78;100.00;100514.53;10458501;28;19931;-64
2023/03/10 22:56:23;;;;;;;;;;;;;;;0.60;100.00;100516.59;10458146;28;19975;-64
2023/03/10 23:01:25;;;;;;;;;;;;;;;0.64;100.00;100520.81;10459615;28;19924;-64
2023/03/10 23:06:28;;;;;;;;;;;;;;;0.65;100.00;100526.81;10459449;28;19924;-64
2023/03/10 23:11:30;;;;;;;;;;;;;;;0.69;100.00;100526.72;10441040;28;19929;-64
2023/03/10 23:16:35;;;;;;;;;;;;;;;0.63;100.00;100528.56;10457567;28;20383;-64
2023/03/10 23:21:37;;;;;;;;;;;;;;;0.50;100.00;100533.13;10458378;28;19951;-64
2023/03/10 23:26:39;;;;;;;;;;;;;;;0.49;100.00;100534.03;10458738;28;19995;-64
2023/03/10 23:31:42;;;;;;;;;;;;;;;0.35;100.00;100542.88;10455637;28;20369;-64
2023/03/10 23:36:44;;;;;;;;;;;;;;;0.34;100.00;100550.63;10456829;28;19924;-64
2023/03/10 23:41:46;;;;;;;;;;;;;;;0.30;100.00;100557.56;10458221;28;19925;-64
2023/03/10 23:46:49;;;;;;;;;;;;;;;0.34;100.00;100561.75;10439643;28;19925;-64
2023/03/10 23:51:53;;;;;;;;;;;;;;;0.32;100.00;100572.94;10456986;28;19929;-64
2023/03/10 23:56:55;;;;;;;;;;;;;;;0.22;100.00;100577.44;10457023;28;19971;-64
